sensor_id;sensor_type;location;lat;lon;timestamp;pressure;altitude;pressure_sealevel;temperature;humidity
63306;BME280;50735;52.060;1.248;2022-07-17T00:01:57;102387.92;;;16.64;52.13
63306;BME280;50735;52.060;1.248;2022-07-17T00:04:24;102384.28;;;16.85;51.45
63306;BME280;50735;52.060;1.248;2022-07-17T00:06:52;102385.32;;;16.86;52.25
63306;BME280;50735;52.060;1.248;2022-07-17T00:09:19;102382.39;;;16.92;51.72
63306;BME280;50735;52.060;1.248;2022-07-17T00:11:47;102381.50;;;16.93;51.46
63306;BME280;50735;52.060;1.248;2022-07-17T00:14:14;102385.12;;;16.72;52.05
63306;BME280;50735;52.060;1.248;2022-07-17T00:16:41;102382.59;;;16.95;52.00
63306;BME280;50735;52.060;1.248;2022-07-17T00:19:09;102384.12;;;16.88;52.07
63306;BME280;50735;52.060;1.248;2022-07-17T00:21:36;102388.75;;;17.05;51.23
63306;BME280;50735;52.060;1.248;2022-07-17T00:24:04;102387.14;;;17.00;50.87
63306;BME280;50735;52.060;1.248;2022-07-17T00:26:31;102385.91;;;17.05;51.25
63306;BME280;50735;52.060;1.248;2022-07-17T00:28:59;102384.36;;;16.97;51.86
63306;BME280;50735;52.060;1.248;2022-07-17T00:31:26;102381.60;;;16.98;51.65
63306;BME280;50735;52.060;1.248;2022-07-17T00:33:53;102379.56;;;17.14;51.77
63306;BME280;50735;52.060;1.248;2022-07-17T00:36:21;102377.23;;;17.16;51.71
63306;BME280;50735;52.060;1.248;2022-07-17T00:38:47;102372.84;;;17.11;51.97
63306;BME280;50735;52.060;1.248;2022-07-17T00:41:15;102369.23;;;16.85;51.94
63306;BME280;50735;52.060;1.248;2022-07-17T00:43:42;102370.71;;;16.78;52.30
63306;BME280;50735;52.060;1.248;2022-07-17T00:46:10;102369.96;;;16.83;52.43
63306;BME280;50735;52.060;1.248;2022-07-17T00:48:37;102368.51;;;16.85;52.28
63306;BME280;50735;52.060;1.248;2022-07-17T00:51:04;102377.25;;;16.73;52.53
63306;BME280;50735;52.060;1.248;2022-07-17T00:53:33;102380.49;;;16.70;51.82
63306;BME280;50735;52.060;1.248;2022-07-17T00:56:01;102379.21;;;17.06;51.39
63306;BME280;50735;52.060;1.248;2022-07-17T00:58:29;102380.53;;;17.03;51.05
63306;BME280;50735;52.060;1.248;2022-07-17T01:00:56;102391.36;;;17.02;51.03
63306;BME280;50735;52.060;1.248;2022-07-17T01:03:25;102393.13;;;17.14;52.03
63306;BME280;50735;52.060;1.248;2022-07-17T01:05:52;102389.16;;;16.99;51.54
63306;BME280;50735;52.060;1.248;2022-07-17T01:08:19;102387.67;;;17.00;51.21
63306;BME280;50735;52.060;1.248;2022-07-17T01:10:46;102384.87;;;17.18;51.81
63306;BME280;50735;52.060;1.248;2022-07-17T01:13:14;102389.97;;;17.15;51.51
63306;BME280;50735;52.060;1.248;2022-07-17T01:15:42;102391.61;;;16.75;52.47
63306;BME280;50735;52.060;1.248;2022-07-17T01:18:11;102391.27;;;16.99;52.30
63306;BME280;50735;52.060;1.248;2022-07-17T01:20:41;102389.41;;;16.98;51.75
63306;BME280;50735;52.060;1.248;2022-07-17T01:23:09;102398.24;;;17.04;51.87
63306;BME280;50735;52.060;1.248;2022-07-17T01:25:36;102401.06;;;16.95;52.05
63306;BME280;50735;52.060;1.248;2022-07-17T01:28:04;102399.12;;;17.21;51.64
63306;BME280;50735;52.060;1.248;2022-07-17T01:30:33;102401.26;;;17.22;51.30
63306;BME280;50735;52.060;1.248;2022-07-17T01:33:00;102401.68;;;17.24;50.83
63306;BME280;50735;52.060;1.248;2022-07-17T01:35:28;102405.37;;;17.30;50.68
63306;BME280;50735;52.060;1.248;2022-07-17T01:37:55;102404.61;;;17.29;50.96
63306;BME280;50735;52.060;1.248;2022-07-17T01:40:22;102405.62;;;17.29;51.60
63306;BME280;50735;52.060;1.248;2022-07-17T01:42:50;102405.67;;;17.29;51.02
63306;BME280;50735;52.060;1.248;2022-07-17T01:45:18;102403.86;;;17.25;51.08
63306;BME280;50735;52.060;1.248;2022-07-17T01:47:45;102405.14;;;17.17;51.22
63306;BME280;50735;52.060;1.248;2022-07-17T01:50:14;102408.37;;;17.24;51.26
63306;BME280;50735;52.060;1.248;2022-07-17T01:52:43;102406.33;;;17.26;50.91
63306;BME280;50735;52.060;1.248;2022-07-17T01:55:11;102405.20;;;17.11;50.88
63306;BME280;50735;52.060;1.248;2022-07-17T01:57:39;102405.81;;;17.34;50.75
63306;BME280;50735;52.060;1.248;2022-07-17T02:00:10;102407.75;;;17.36;50.53
63306;BME280;50735;52.060;1.248;2022-07-17T02:02:37;102409.76;;;17.38;50.40
63306;BME280;50735;52.060;1.248;2022-07-17T02:05:05;102411.11;;;17.40;50.53
63306;BME280;50735;52.060;1.248;2022-07-17T02:07:32;102408.81;;;17.38;50.30
63306;BME280;50735;52.060;1.248;2022-07-17T02:10:00;102412.48;;;17.37;50.36
63306;BME280;50735;52.060;1.248;2022-07-17T02:12:27;102412.11;;;17.19;50.56
63306;BME280;50735;52.060;1.248;2022-07-17T02:14:54;102416.42;;;17.34;50.38
63306;BME280;50735;52.060;1.248;2022-07-17T02:17:21;102415.94;;;17.16;50.53
63306;BME280;50735;52.060;1.248;2022-07-17T02:19:48;102417.91;;;17.51;50.20
63306;BME280;50735;52.060;1.248;2022-07-17T02:22:16;102421.46;;;17.47;50.20
63306;BME280;50735;52.060;1.248;2022-07-17T02:24:43;102421.00;;;17.27;50.26
63306;BME280;50735;52.060;1.248;2022-07-17T02:27:11;102422.37;;;17.25;50.24
63306;BME280;50735;52.060;1.248;2022-07-17T02:29:38;102418.73;;;17.24;50.35
63306;BME280;50735;52.060;1.248;2022-07-17T02:32:05;102417.75;;;17.24;50.47
63306;BME280;50735;52.060;1.248;2022-07-17T02:34:33;102417.07;;;17.23;50.49
63306;BME280;50735;52.060;1.248;2022-07-17T02:37:00;102417.91;;;17.24;50.56
63306;BME280;50735;52.060;1.248;2022-07-17T02:39:28;102412.45;;;17.21;50.58
63306;BME280;50735;52.060;1.248;2022-07-17T02:41:55;102411.32;;;17.20;50.64
63306;BME280;50735;52.060;1.248;2022-07-17T02:44:22;102411.12;;;17.19;50.64
63306;BME280;50735;52.060;1.248;2022-07-17T02:46:50;102406.58;;;17.21;50.66
63306;BME280;50735;52.060;1.248;2022-07-17T02:49:16;102407.18;;;17.18;50.80
63306;BME280;50735;52.060;1.248;2022-07-17T02:51:44;102404.55;;;17.18;50.78
63306;BME280;50735;52.060;1.248;2022-07-17T02:54:11;102403.76;;;17.14;50.88
63306;BME280;50735;52.060;1.248;2022-07-17T02:56:38;102404.12;;;17.11;51.10
63306;BME280;50735;52.060;1.248;2022-07-17T02:59:06;102406.25;;;17.10;50.86
63306;BME280;50735;52.060;1.248;2022-07-17T03:01:32;102407.82;;;17.08;50.74
63306;BME280;50735;52.060;1.248;2022-07-17T03:04:00;102406.19;;;17.28;50.77
63306;BME280;50735;52.060;1.248;2022-07-17T03:06:28;102404.20;;;16.93;50.86
63306;BME280;50735;52.060;1.248;2022-07-17T03:08:55;102406.99;;;17.09;50.82
63306;BME280;50735;52.060;1.248;2022-07-17T03:11:23;102407.04;;;17.08;50.88
63306;BME280;50735;52.060;1.248;2022-07-17T03:13:49;102404.46;;;17.06;50.88
63306;BME280;50735;52.060;1.248;2022-07-17T03:16:16;102402.34;;;17.05;50.99
63306;BME280;50735;52.060;1.248;2022-07-17T03:18:43;102400.23;;;17.04;50.94
63306;BME280;50735;52.060;1.248;2022-07-17T03:21:10;102398.58;;;17.21;50.77
63306;BME280;50735;52.060;1.248;2022-07-17T03:23:37;102396.65;;;16.60;50.74
63306;BME280;50735;52.060;1.248;2022-07-17T03:26:05;102395.89;;;17.14;50.49
63306;BME280;50735;52.060;1.248;2022-07-17T03:28:32;102395.61;;;16.91;50.51
63306;BME280;50735;52.060;1.248;2022-07-17T03:31:00;102397.16;;;16.88;50.52
63306;BME280;50735;52.060;1.248;2022-07-17T03:33:27;102392.45;;;16.85;50.61
63306;BME280;50735;52.060;1.248;2022-07-17T03:35:54;102387.42;;;16.82;50.73
63306;BME280;50735;52.060;1.248;2022-07-17T03:38:21;102382.87;;;16.79;51.03
63306;BME280;50735;52.060;1.248;2022-07-17T03:40:47;102381.09;;;16.79;50.98
63306;BME280;50735;52.060;1.248;2022-07-17T03:43:15;102386.04;;;16.94;50.66
63306;BME280;50735;52.060;1.248;2022-07-17T03:45:42;102386.00;;;16.73;50.41
63306;BME280;50735;52.060;1.248;2022-07-17T03:48:09;102387.04;;;17.07;50.38
63306;BME280;50735;52.060;1.248;2022-07-17T03:50:37;102385.75;;;17.03;50.51
63306;BME280;50735;52.060;1.248;2022-07-17T03:53:04;102385.90;;;16.72;50.45
63306;BME280;50735;52.060;1.248;2022-07-17T03:55:31;102386.59;;;16.68;50.42
63306;BME280;50735;52.060;1.248;2022-07-17T03:57:59;102388.96;;;16.64;50.33
63306;BME280;50735;52.060;1.248;2022-07-17T04:00:26;102391.70;;;16.61;50.23
63306;BME280;50735;52.060;1.248;2022-07-17T04:02:54;102394.41;;;16.56;50.28
63306;BME280;50735;52.060;1.248;2022-07-17T04:05:21;102395.84;;;16.56;51.16
63306;BME280;50735;52.060;1.248;2022-07-17T04:07:48;102393.31;;;16.52;50.67
63306;BME280;50735;52.060;1.248;2022-07-17T04:10:15;102396.63;;;16.49;50.64
63306;BME280;50735;52.060;1.248;2022-07-17T04:12:43;102401.03;;;16.48;50.68
63306;BME280;50735;52.060;1.248;2022-07-17T04:15:10;102399.31;;;16.48;50.45
63306;BME280;50735;52.060;1.248;2022-07-17T04:17:38;102394.94;;;16.45;50.58
63306;BME280;50735;52.060;1.248;2022-07-17T04:20:06;102389.43;;;16.66;50.81
63306;BME280;50735;52.060;1.248;2022-07-17T04:22:33;102381.02;;;16.45;51.29
63306;BME280;50735;52.060;1.248;2022-07-17T04:25:00;102373.18;;;16.31;51.22
63306;BME280;50735;52.060;1.248;2022-07-17T04:27:27;102369.76;;;16.75;51.42
63306;BME280;50735;52.060;1.248;2022-07-17T04:29:55;102368.99;;;16.40;52.19
63306;BME280;50735;52.060;1.248;2022-07-17T04:32:22;102364.09;;;16.58;51.88
63306;BME280;50735;52.060;1.248;2022-07-17T04:34:49;102362.72;;;16.86;52.03
63306;BME280;50735;52.060;1.248;2022-07-17T04:37:16;102363.96;;;16.41;52.90
63306;BME280;50735;52.060;1.248;2022-07-17T04:39:42;102368.57;;;16.82;52.63
63306;BME280;50735;52.060;1.248;2022-07-17T04:42:09;102366.97;;;16.43;52.78
63306;BME280;50735;52.060;1.248;2022-07-17T04:44:37;102369.57;;;16.67;52.65
63306;BME280;50735;52.060;1.248;2022-07-17T04:47:03;102362.45;;;16.73;53.07
63306;BME280;50735;52.060;1.248;2022-07-17T04:49:30;102364.07;;;16.65;52.87
63306;BME280;50735;52.060;1.248;2022-07-17T04:51:57;102371.28;;;16.86;52.51
63306;BME280;50735;52.060;1.248;2022-07-17T04:54:24;102376.07;;;16.90;52.42
63306;BME280;50735;52.060;1.248;2022-07-17T04:56:51;102374.94;;;17.01;52.56
63306;BME280;50735;52.060;1.248;2022-07-17T04:59:19;102376.08;;;17.10;52.49
63306;BME280;50735;52.060;1.248;2022-07-17T05:01:46;102377.77;;;17.18;51.89
63306;BME280;50735;52.060;1.248;2022-07-17T05:04:13;102377.88;;;17.07;51.75
63306;BME280;50735;52.060;1.248;2022-07-17T05:06:40;102379.41;;;17.05;51.76
63306;BME280;50735;52.060;1.248;2022-07-17T05:09:07;102384.02;;;16.84;51.86
63306;BME280;50735;52.060;1.248;2022-07-17T05:11:34;102383.08;;;16.77;51.87
63306;BME280;50735;52.060;1.248;2022-07-17T05:14:02;102387.41;;;17.10;51.74
63306;BME280;50735;52.060;1.248;2022-07-17T05:16:29;102390.36;;;17.07;51.53
63306;BME280;50735;52.060;1.248;2022-07-17T05:18:56;102390.39;;;17.32;51.34
63306;BME280;50735;52.060;1.248;2022-07-17T05:21:23;102385.16;;;17.18;51.50
63306;BME280;50735;52.060;1.248;2022-07-17T05:23:49;102384.85;;;17.03;51.32
63306;BME280;50735;52.060;1.248;2022-07-17T05:26:17;102383.31;;;17.24;51.43
63306;BME280;50735;52.060;1.248;2022-07-17T05:28:43;102379.70;;;17.26;51.57
63306;BME280;50735;52.060;1.248;2022-07-17T05:31:11;102376.67;;;17.11;52.30
63306;BME280;50735;52.060;1.248;2022-07-17T05:33:38;102372.13;;;17.16;52.22
63306;BME280;50735;52.060;1.248;2022-07-17T05:36:05;102372.52;;;17.12;51.72
63306;BME280;50735;52.060;1.248;2022-07-17T05:38:33;102380.26;;;17.36;51.69
63306;BME280;50735;52.060;1.248;2022-07-17T05:41:00;102386.14;;;17.37;51.42
63306;BME280;50735;52.060;1.248;2022-07-17T05:43:27;102387.66;;;17.44;51.95
63306;BME280;50735;52.060;1.248;2022-07-17T05:45:57;102389.29;;;17.49;51.73
63306;BME280;50735;52.060;1.248;2022-07-17T05:48:24;102388.91;;;17.63;51.46
63306;BME280;50735;52.060;1.248;2022-07-17T05:50:52;102395.26;;;16.96;51.87
63306;BME280;50735;52.060;1.248;2022-07-17T05:53:19;102393.62;;;17.36;52.03
63306;BME280;50735;52.060;1.248;2022-07-17T05:55:46;102388.67;;;17.07;52.34
63306;BME280;50735;52.060;1.248;2022-07-17T05:58:14;102384.78;;;17.19;52.57
63306;BME280;50735;52.060;1.248;2022-07-17T06:00:41;102385.15;;;17.42;52.16
63306;BME280;50735;52.060;1.248;2022-07-17T06:03:08;102383.67;;;17.60;51.68
63306;BME280;50735;52.060;1.248;2022-07-17T06:05:36;102384.66;;;17.50;51.45
63306;BME280;50735;52.060;1.248;2022-07-17T06:08:03;102382.05;;;17.68;51.62
63306;BME280;50735;52.060;1.248;2022-07-17T06:10:30;102380.95;;;17.83;51.50
63306;BME280;50735;52.060;1.248;2022-07-17T06:12:58;102384.54;;;17.70;51.05
63306;BME280;50735;52.060;1.248;2022-07-17T06:15:26;102391.23;;;17.73;50.94
63306;BME280;50735;52.060;1.248;2022-07-17T06:17:53;102396.01;;;17.83;50.94
63306;BME280;50735;52.060;1.248;2022-07-17T06:20:20;102392.39;;;17.60;51.04
63306;BME280;50735;52.060;1.248;2022-07-17T06:22:47;102393.35;;;17.71;50.35
63306;BME280;50735;52.060;1.248;2022-07-17T06:25:15;102393.20;;;17.46;50.43
63306;BME280;50735;52.060;1.248;2022-07-17T06:27:42;102396.04;;;17.52;50.61
63306;BME280;50735;52.060;1.248;2022-07-17T06:30:14;102398.83;;;17.44;50.37
63306;BME280;50735;52.060;1.248;2022-07-17T06:32:41;102403.32;;;17.56;49.89
63306;BME280;50735;52.060;1.248;2022-07-17T06:35:10;102407.90;;;17.55;49.80
63306;BME280;50735;52.060;1.248;2022-07-17T06:37:37;102410.87;;;17.48;49.74
63306;BME280;50735;52.060;1.248;2022-07-17T06:40:06;102410.61;;;17.70;49.46
63306;BME280;50735;52.060;1.248;2022-07-17T06:42:33;102418.24;;;17.75;49.32
63306;BME280;50735;52.060;1.248;2022-07-17T06:45:00;102414.71;;;17.97;48.78
63306;BME280;50735;52.060;1.248;2022-07-17T06:47:28;102410.57;;;18.28;48.48
63306;BME280;50735;52.060;1.248;2022-07-17T06:49:55;102410.42;;;18.64;47.99
63306;BME280;50735;52.060;1.248;2022-07-17T06:52:22;102415.84;;;18.59;47.55
63306;BME280;50735;52.060;1.248;2022-07-17T06:54:49;102425.95;;;18.54;46.59
63306;BME280;50735;52.060;1.248;2022-07-17T06:57:16;102429.58;;;18.57;46.19
63306;BME280;50735;52.060;1.248;2022-07-17T06:59:43;102429.18;;;18.34;46.09
63306;BME280;50735;52.060;1.248;2022-07-17T07:02:11;102431.79;;;18.49;46.24
63306;BME280;50735;52.060;1.248;2022-07-17T07:04:38;102430.89;;;18.61;45.12
63306;BME280;50735;52.060;1.248;2022-07-17T07:07:06;102430.65;;;18.50;45.04
63306;BME280;50735;52.060;1.248;2022-07-17T07:09:33;102429.17;;;18.77;44.77
63306;BME280;50735;52.060;1.248;2022-07-17T07:12:00;102430.50;;;19.03;43.98
63306;BME280;50735;52.060;1.248;2022-07-17T07:14:28;102425.11;;;19.02;43.86
63306;BME280;50735;52.060;1.248;2022-07-17T07:16:55;102428.20;;;18.66;43.34
63306;BME280;50735;52.060;1.248;2022-07-17T07:19:22;102423.51;;;19.43;43.48
63306;BME280;50735;52.060;1.248;2022-07-17T07:21:50;102417.70;;;18.90;43.52
63306;BME280;50735;52.060;1.248;2022-07-17T07:24:17;102416.36;;;19.27;43.21
63306;BME280;50735;52.060;1.248;2022-07-17T07:26:44;102414.02;;;19.25;43.07
63306;BME280;50735;52.060;1.248;2022-07-17T07:29:12;102413.44;;;19.48;42.43
63306;BME280;50735;52.060;1.248;2022-07-17T07:31:39;102415.00;;;19.38;42.59
63306;BME280;50735;52.060;1.248;2022-07-17T07:34:06;102410.63;;;19.57;42.28
63306;BME280;50735;52.060;1.248;2022-07-17T07:36:34;102413.65;;;19.72;41.80
63306;BME280;50735;52.060;1.248;2022-07-17T07:39:01;102416.44;;;19.61;41.62
63306;BME280;50735;52.060;1.248;2022-07-17T07:41:29;102419.52;;;19.89;41.02
63306;BME280;50735;52.060;1.248;2022-07-17T07:43:56;102415.12;;;20.27;40.32
63306;BME280;50735;52.060;1.248;2022-07-17T07:46:23;102413.46;;;20.53;40.27
63306;BME280;50735;52.060;1.248;2022-07-17T07:48:51;102409.52;;;20.42;39.24
63306;BME280;50735;52.060;1.248;2022-07-17T07:51:18;102414.18;;;20.49;38.89
63306;BME280;50735;52.060;1.248;2022-07-17T07:53:45;102413.96;;;20.51;38.26
63306;BME280;50735;52.060;1.248;2022-07-17T07:56:13;102408.77;;;20.66;37.91
63306;BME280;50735;52.060;1.248;2022-07-17T07:58:40;102411.14;;;20.85;37.38
63306;BME280;50735;52.060;1.248;2022-07-17T08:01:07;102413.46;;;20.85;37.26
63306;BME280;50735;52.060;1.248;2022-07-17T08:03:34;102411.67;;;20.81;35.63
63306;BME280;50735;52.060;1.248;2022-07-17T08:06:01;102408.84;;;21.04;35.47
63306;BME280;50735;52.060;1.248;2022-07-17T08:08:29;102407.39;;;21.45;35.66
63306;BME280;50735;52.060;1.248;2022-07-17T08:10:56;102408.01;;;21.90;35.28
63306;BME280;50735;52.060;1.248;2022-07-17T08:13:23;102410.02;;;22.20;35.09
63306;BME280;50735;52.060;1.248;2022-07-17T08:15:51;102414.53;;;21.95;34.65
63306;BME280;50735;52.060;1.248;2022-07-17T08:18:18;102412.18;;;22.35;35.05
63306;BME280;50735;52.060;1.248;2022-07-17T08:20:45;102414.20;;;22.45;34.60
63306;BME280;50735;52.060;1.248;2022-07-17T08:23:13;102410.79;;;22.79;33.91
63306;BME280;50735;52.060;1.248;2022-07-17T08:25:40;102404.71;;;22.98;34.20
63306;BME280;50735;52.060;1.248;2022-07-17T08:28:07;102404.58;;;23.06;33.02
63306;BME280;50735;52.060;1.248;2022-07-17T08:30:35;102404.20;;;23.22;33.05
63306;BME280;50735;52.060;1.248;2022-07-17T08:33:02;102401.76;;;23.37;32.61
63306;BME280;50735;52.060;1.248;2022-07-17T08:35:30;102410.47;;;23.53;32.03
63306;BME280;50735;52.060;1.248;2022-07-17T08:37:58;102415.69;;;23.48;32.05
63306;BME280;50735;52.060;1.248;2022-07-17T08:40:27;102408.29;;;23.75;32.22
63306;BME280;50735;52.060;1.248;2022-07-17T08:42:55;102409.31;;;23.83;31.49
63306;BME280;50735;52.060;1.248;2022-07-17T08:45:23;102406.68;;;24.46;30.07
63306;BME280;50735;52.060;1.248;2022-07-17T08:47:52;102408.98;;;24.70;30.30
63306;BME280;50735;52.060;1.248;2022-07-17T08:50:22;102410.85;;;24.96;30.15
63306;BME280;50735;52.060;1.248;2022-07-17T08:52:51;102415.59;;;23.43;29.16
63306;BME280;50735;52.060;1.248;2022-07-17T08:55:18;102409.88;;;24.67;29.05
63306;BME280;50735;52.060;1.248;2022-07-17T08:57:45;102410.62;;;24.78;29.25
63306;BME280;50735;52.060;1.248;2022-07-17T09:00:14;102409.04;;;25.34;28.49
63306;BME280;50735;52.060;1.248;2022-07-17T09:02:53;102403.32;;;25.19;29.18
63306;BME280;50735;52.060;1.248;2022-07-17T09:05:21;102406.28;;;25.34;29.84
63306;BME280;50735;52.060;1.248;2022-07-17T09:07:48;102407.97;;;25.75;29.50
63306;BME280;50735;52.060;1.248;2022-07-17T09:10:15;102412.31;;;25.86;28.93
63306;BME280;50735;52.060;1.248;2022-07-17T09:12:43;102414.68;;;26.33;28.53
63306;BME280;50735;52.060;1.248;2022-07-17T09:15:18;102415.83;;;26.69;28.20
63306;BME280;50735;52.060;1.248;2022-07-17T09:17:48;102411.30;;;25.25;29.77
63306;BME280;50735;52.060;1.248;2022-07-17T09:20:15;102411.02;;;26.25;28.75
63306;BME280;50735;52.060;1.248;2022-07-17T09:22:43;102417.61;;;26.55;28.47
63306;BME280;50735;52.060;1.248;2022-07-17T09:25:10;102409.45;;;26.65;28.05
63306;BME280;50735;52.060;1.248;2022-07-17T09:27:37;102404.47;;;27.17;27.78
63306;BME280;50735;52.060;1.248;2022-07-17T09:30:06;102409.34;;;27.16;27.38
63306;BME280;50735;52.060;1.248;2022-07-17T09:32:36;102410.65;;;27.20;27.68
63306;BME280;50735;52.060;1.248;2022-07-17T09:35:06;102408.77;;;27.19;27.38
63306;BME280;50735;52.060;1.248;2022-07-17T09:37:34;102410.12;;;27.12;27.59
63306;BME280;50735;52.060;1.248;2022-07-17T09:40:03;102414.01;;;27.28;27.62
63306;BME280;50735;52.060;1.248;2022-07-17T09:42:34;102409.24;;;26.93;27.44
63306;BME280;50735;52.060;1.248;2022-07-17T09:45:04;102401.90;;;27.44;26.91
63306;BME280;50735;52.060;1.248;2022-07-17T09:47:33;102408.16;;;27.37;27.47
63306;BME280;50735;52.060;1.248;2022-07-17T09:50:02;102406.60;;;27.89;26.94
63306;BME280;50735;52.060;1.248;2022-07-17T09:52:33;102405.23;;;27.95;26.43
63306;BME280;50735;52.060;1.248;2022-07-17T09:55:02;102406.54;;;27.86;26.56
63306;BME280;50735;52.060;1.248;2022-07-17T09:57:31;102408.52;;;27.82;26.26
63306;BME280;50735;52.060;1.248;2022-07-17T10:00:01;102410.02;;;27.97;26.08
63306;BME280;50735;52.060;1.248;2022-07-17T10:02:30;102413.04;;;28.43;25.86
63306;BME280;50735;52.060;1.248;2022-07-17T10:04:58;102410.56;;;28.40;25.34
63306;BME280;50735;52.060;1.248;2022-07-17T10:07:26;102407.00;;;28.37;25.66
63306;BME280;50735;52.060;1.248;2022-07-17T10:09:53;102410.86;;;28.49;25.85
63306;BME280;50735;52.060;1.248;2022-07-17T10:12:21;102404.43;;;28.49;26.00
63306;BME280;50735;52.060;1.248;2022-07-17T10:14:48;102408.11;;;27.04;27.16
63306;BME280;50735;52.060;1.248;2022-07-17T10:17:20;102407.55;;;27.56;26.77
63306;BME280;50735;52.060;1.248;2022-07-17T10:19:49;102404.28;;;27.52;26.32
63306;BME280;50735;52.060;1.248;2022-07-17T10:22:16;102409.57;;;27.62;26.84
63306;BME280;50735;52.060;1.248;2022-07-17T10:24:46;102402.34;;;28.53;26.14
63306;BME280;50735;52.060;1.248;2022-07-17T10:27:24;102402.65;;;27.83;26.06
63306;BME280;50735;52.060;1.248;2022-07-17T10:30:00;102407.33;;;27.76;26.27
63306;BME280;50735;52.060;1.248;2022-07-17T10:32:28;102408.09;;;27.57;26.85
63306;BME280;50735;52.060;1.248;2022-07-17T10:34:59;102408.57;;;27.50;26.80
63306;BME280;50735;52.060;1.248;2022-07-17T10:37:28;102409.13;;;27.59;26.55
63306;BME280;50735;52.060;1.248;2022-07-17T10:40:03;102413.16;;;27.87;26.16
63306;BME280;50735;52.060;1.248;2022-07-17T10:42:43;102407.96;;;27.99;25.96
63306;BME280;50735;52.060;1.248;2022-07-17T10:45:12;102404.31;;;27.81;26.59
63306;BME280;50735;52.060;1.248;2022-07-17T10:47:44;102406.29;;;28.33;25.62
63306;BME280;50735;52.060;1.248;2022-07-17T10:50:12;102407.55;;;27.21;26.21
63306;BME280;50735;52.060;1.248;2022-07-17T10:52:39;102398.26;;;27.59;26.51
63306;BME280;50735;52.060;1.248;2022-07-17T10:55:17;102401.33;;;27.82;26.60
63306;BME280;50735;52.060;1.248;2022-07-17T10:57:45;102410.51;;;27.19;26.42
63306;BME280;50735;52.060;1.248;2022-07-17T11:00:13;102405.06;;;27.72;26.03
63306;BME280;50735;52.060;1.248;2022-07-17T11:02:40;102408.54;;;27.90;25.49
63306;BME280;50735;52.060;1.248;2022-07-17T11:05:08;102404.75;;;28.11;25.12
63306;BME280;50735;52.060;1.248;2022-07-17T11:07:35;102401.58;;;28.03;25.47
63306;BME280;50735;52.060;1.248;2022-07-17T11:10:03;102407.67;;;28.41;25.06
63306;BME280;50735;52.060;1.248;2022-07-17T11:12:31;102401.71;;;28.32;25.06
63306;BME280;50735;52.060;1.248;2022-07-17T11:14:59;102398.30;;;28.27;25.13
63306;BME280;50735;52.060;1.248;2022-07-17T11:17:26;102397.59;;;28.08;25.11
63306;BME280;50735;52.060;1.248;2022-07-17T11:19:53;102398.14;;;27.49;24.97
63306;BME280;50735;52.060;1.248;2022-07-17T11:22:23;102386.65;;;27.99;24.86
63306;BME280;50735;52.060;1.248;2022-07-17T11:24:51;102393.90;;;27.41;24.39
63306;BME280;50735;52.060;1.248;2022-07-17T11:27:20;102390.67;;;27.62;24.52
63306;BME280;50735;52.060;1.248;2022-07-17T11:29:48;102382.54;;;27.84;24.70
63306;BME280;50735;52.060;1.248;2022-07-17T11:32:16;102383.58;;;27.50;24.28
63306;BME280;50735;52.060;1.248;2022-07-17T11:34:43;102379.67;;;27.22;24.83
63306;BME280;50735;52.060;1.248;2022-07-17T11:37:11;102378.36;;;27.82;24.70
63306;BME280;50735;52.060;1.248;2022-07-17T11:39:39;102385.24;;;27.40;24.85
63306;BME280;50735;52.060;1.248;2022-07-17T11:42:08;102372.79;;;27.81;24.59
63306;BME280;50735;52.060;1.248;2022-07-17T11:44:36;102374.19;;;27.44;24.71
63306;BME280;50735;52.060;1.248;2022-07-17T11:47:04;102368.20;;;26.83;25.51
63306;BME280;50735;52.060;1.248;2022-07-17T11:49:33;102365.34;;;27.22;25.21
63306;BME280;50735;52.060;1.248;2022-07-17T11:52:08;102363.06;;;27.20;25.42
63306;BME280;50735;52.060;1.248;2022-07-17T11:54:44;102373.61;;;27.31;24.75
63306;BME280;50735;52.060;1.248;2022-07-17T11:57:12;102364.08;;;27.00;24.96
63306;BME280;50735;52.060;1.248;2022-07-17T11:59:39;102368.38;;;27.05;25.19
63306;BME280;50735;52.060;1.248;2022-07-17T12:02:08;102368.97;;;26.71;25.02
63306;BME280;50735;52.060;1.248;2022-07-17T12:04:35;102365.37;;;26.07;25.49
63306;BME280;50735;52.060;1.248;2022-07-17T12:07:03;102364.74;;;26.07;25.42
63306;BME280;50735;52.060;1.248;2022-07-17T12:09:32;102362.56;;;26.65;25.15
63306;BME280;50735;52.060;1.248;2022-07-17T12:12:00;102360.47;;;26.33;24.86
63306;BME280;50735;52.060;1.248;2022-07-17T12:14:28;102360.17;;;26.85;24.70
63306;BME280;50735;52.060;1.248;2022-07-17T12:16:56;102356.80;;;26.68;25.29
63306;BME280;50735;52.060;1.248;2022-07-17T12:19:24;102362.08;;;25.60;25.89
63306;BME280;50735;52.060;1.248;2022-07-17T12:21:54;102350.94;;;25.69;25.87
63306;BME280;50735;52.060;1.248;2022-07-17T12:24:24;102350.99;;;25.62;26.19
63306;BME280;50735;52.060;1.248;2022-07-17T12:26:52;102337.56;;;25.99;25.79
63306;BME280;50735;52.060;1.248;2022-07-17T12:29:19;102338.94;;;26.00;25.59
63306;BME280;50735;52.060;1.248;2022-07-17T12:31:46;102337.02;;;25.98;25.50
63306;BME280;50735;52.060;1.248;2022-07-17T12:34:14;102342.38;;;25.93;25.99
63306;BME280;50735;52.060;1.248;2022-07-17T12:36:41;102332.92;;;25.89;26.28
63306;BME280;50735;52.060;1.248;2022-07-17T12:39:09;102334.90;;;26.38;25.58
63306;BME280;50735;52.060;1.248;2022-07-17T12:41:37;102334.44;;;26.40;25.69
63306;BME280;50735;52.060;1.248;2022-07-17T12:44:04;102339.42;;;26.40;25.61
63306;BME280;50735;52.060;1.248;2022-07-17T12:46:31;102338.96;;;26.04;26.28
63306;BME280;50735;52.060;1.248;2022-07-17T12:48:59;102330.97;;;26.49;26.19
63306;BME280;50735;52.060;1.248;2022-07-17T12:51:26;102331.80;;;26.93;26.57
63306;BME280;50735;52.060;1.248;2022-07-17T12:53:53;102329.26;;;26.32;26.81